October 30, 2014 Special Weather Statement - Los Angeles County San Gabriel Valley (California)
Temp
 
74.1 °F
 
Dew Pt.
 
50.2 °F
 
Humidity
 
43%
 
Pressure
 
1015.3 hPa 
  rising slowly
Wind
 
2.0 mph 
    SW
Rain
 
0.00 in 
  0.00 in/hr
UV index
 
1.5  
 
Solar rad.
 
584 W/m²
 
Today

Mostly Sunny
Mostly
Sunny
Tonight

Patchy Fog
Patchy
Fog
Hi 83 °F Lo 56 °F
Statistics - 10/30/2014
Max Temp 74.0 °F  10:25 am
Min Temp 57.1 °F  7:50 am
Max Dew Pt 49.7 °F  10:10 am
Min Dew Pt 41.8 °F  9:00 am
Max Pressure 1015.7 hPa  1:15 am
Min Pressure 1014.3 hPa  6:25 am
Max Wind 5 mph  10:25 am
Max UV 1.6   10:25 am
Max Solar 649 W/m²  10:25 am
Max Rainfall Rate —   —
Total Precipitation —   
Current Temp 74.0 °F  10:25 am
Temp 24hr ago 76.3 °F  10:25 am
Difference -2.3 °F  
Temp Rate +5.8 °F/hr  
Pressure Rate +0.0 hPa/hr  
time temp dew pt pressure uv solar wind wind speed rainfall rate
00:00 60.9 °F 47.8 °F 1015.3 hPa  NW 1 mph   
00:05 60.8 °F 47.7 °F 1015.3 hPa  Calm    
00:10 60.7 °F 47.6 °F 1015.3 hPa  WNW 2 mph   
00:15 60.6 °F 47.1 °F 1015.4 hPa  WNW 1 mph   
00:20 60.6 °F 47.1 °F 1015.5 hPa  Calm    
00:25 60.6 °F 47.1 °F 1015.5 hPa  W 1 mph   
00:30 60.6 °F 47.1 °F 1015.6 hPa  W 1 mph   
00:35 60.6 °F 46.6 °F 1015.6 hPa  W 1 mph   
00:40 60.7 °F 47.2 °F 1015.6 hPa  Calm    
00:45 60.7 °F 47.2 °F 1015.6 hPa  Calm    
00:50 60.7 °F 47.2 °F 1015.6 hPa  Calm    
00:55 60.7 °F 47.2 °F 1015.6 hPa  Calm    
01:00 60.7 °F 47.2 °F 1015.7 hPa  Calm    
01:05 60.6 °F 47.1 °F 1015.6 hPa  Calm    
01:10 60.6 °F 47.1 °F 1015.6 hPa  Calm    
01:15 60.5 °F 47.4 °F 1015.7 hPa  Calm    
01:20 60.5 °F 47.4 °F 1015.6 hPa  Calm    
01:25 60.4 °F 46.9 °F 1015.5 hPa  Calm    
01:30 60.3 °F 46.8 °F 1015.5 hPa  NNE 1 mph   
01:35 60.2 °F 46.7 °F 1015.5 hPa  NNE 1 mph   
01:40 60.2 °F 47.1 °F 1015.5 hPa  ENE 2 mph   
01:45 60.1 °F 46.6 °F 1015.5 hPa  ENE 1 mph   
01:50 60.1 °F 46.6 °F 1015.5 hPa  Calm    
01:55 60.2 °F 46.3 °F 1015.5 hPa  Calm    
02:00 60.3 °F 46.8 °F 1015.4 hPa  ENE 3 mph   
02:05 60.4 °F 46.9 °F 1015.2 hPa  NE 3 mph   
02:10 60.5 °F 47.4 °F 1015.1 hPa  NE 3 mph   
02:15 60.6 °F 47.5 °F 1015.0 hPa  NE 1 mph   
02:20 60.6 °F 47.9 °F 1014.9 hPa  Calm    
02:25 60.5 °F 47.4 °F 1014.9 hPa  Calm    
02:30 60.5 °F 47.4 °F 1014.8 hPa  Calm    
02:35 60.4 °F 47.3 °F 1014.7 hPa  Calm    
02:40 60.3 °F 46.8 °F 1014.7 hPa  Calm    
02:45 60.2 °F 46.7 °F 1014.6 hPa  Calm    
02:50 60.1 °F 46.6 °F 1014.6 hPa  Calm    
02:55 60.1 °F 46.6 °F 1014.6 hPa  Calm    
03:00 60.0 °F 46.5 °F 1014.6 hPa  WSW 1 mph   
03:05 60.0 °F 46.5 °F 1014.5 hPa  Calm    
03:10 59.9 °F 46.0 °F 1014.6 hPa  W 1 mph   
03:15 59.9 °F 46.4 °F 1014.6 hPa  W 1 mph   
03:20 59.9 °F 46.0 °F 1014.7 hPa  SW 1 mph   
03:25 59.9 °F 46.0 °F 1014.7 hPa  Calm    
03:30 59.9 °F 46.0 °F 1014.6 hPa  Calm    
03:35 59.9 °F 46.0 °F 1014.6 hPa  Calm    
03:40 59.8 °F 45.9 °F 1014.5 hPa  Calm    
03:45 59.8 °F 46.3 °F 1014.5 hPa  Calm    
03:50 59.8 °F 46.8 °F 1014.5 hPa  Calm    
03:55 59.8 °F 46.3 °F 1014.6 hPa  Calm    
04:00 59.7 °F 46.7 °F 1014.7 hPa  Calm    
04:05 59.6 °F 46.6 °F 1014.6 hPa  Calm    
04:10 59.5 °F 46.5 °F 1014.7 hPa  Calm    
04:15 59.4 °F 46.4 °F 1014.7 hPa  Calm    
04:20 59.3 °F 46.7 °F 1014.6 hPa  Calm    
04:25 59.1 °F 46.5 °F 1014.5 hPa  Calm    
04:30 59.0 °F 46.4 °F 1014.5 hPa  Calm    
04:35 59.0 °F 46.4 °F 1014.5 hPa  Calm    
04:40 59.0 °F 46.0 °F 1014.6 hPa  W 2 mph   
04:45 59.0 °F 46.0 °F 1014.6 hPa  WNW 1 mph   
04:50 59.0 °F 46.0 °F 1014.5 hPa  Calm    
04:55 59.0 °F 46.0 °F 1014.5 hPa  W 1 mph   
05:00 59.0 °F 46.0 °F 1014.6 hPa  W 1 mph   
05:05 59.0 °F 46.0 °F 1014.6 hPa  W 1 mph   
05:10 58.7 °F 45.3 °F 1014.5 hPa  NNE 2 mph   
05:15 58.6 °F 45.2 °F 1014.6 hPa  W 1 mph   
05:20 58.5 °F 45.5 °F 1014.7 hPa  W 1 mph   
05:25 58.3 °F 45.3 °F 1014.8 hPa  W 1 mph   
05:30 58.2 °F 44.8 °F 1014.7 hPa  Calm    
05:35 58.0 °F 44.6 °F 1014.7 hPa  Calm    
05:40 58.0 °F 44.6 °F 1014.6 hPa  Calm    
05:45 57.9 °F 45.0 °F 1014.5 hPa  E 2 mph   
05:50 57.9 °F 45.4 °F 1014.6 hPa  E 2 mph   
05:55 57.8 °F 44.9 °F 1014.5 hPa  E 2 mph   
06:00 57.7 °F 44.3 °F 1014.5 hPa  Calm    
06:05 57.7 °F 43.9 °F 1014.5 hPa  Calm    
06:10 57.7 °F 43.5 °F 1014.4 hPa  Calm    
06:15 57.7 °F 43.5 °F 1014.5 hPa  Calm    
06:20 57.8 °F 43.6 °F 1014.4 hPa  Calm    
06:25 57.8 °F 43.6 °F 1014.3 hPa  Calm    
06:30 57.8 °F 43.6 °F 1014.3 hPa  NW 1 mph   
06:35 57.8 °F 44.0 °F 1014.5 hPa  WSW 2 mph   
06:40 57.8 °F 44.0 °F 1014.6 hPa  W 2 mph   
06:45 57.7 °F 43.9 °F 1014.6 hPa  W 1 mph   
06:50 57.6 °F 43.8 °F 1014.7 hPa  W 1 mph   
06:55 57.5 °F 43.7 °F 1014.7 hPa  NNW 1 mph   
07:00 57.4 °F 43.6 °F 1014.5 hPa  NE 2 mph   
07:05 57.3 °F 43.5 °F 1014.4 hPa  NE 1 mph   
07:10 57.3 °F 43.1 °F 1014.4 hPa  Calm    
07:15 57.3 °F 43.5 °F 1014.5 hPa  Calm    
07:20 57.2 °F 43.4 °F 1014.6 hPa 3 W/m²  WSW 1 mph   
07:25 57.1 °F 42.9 °F 1014.7 hPa 7 W/m²  WSW 2 mph   
07:30 57.1 °F 42.9 °F 1014.7 hPa 10 W/m²  W 2 mph   
07:35 57.1 °F 42.9 °F 1014.8 hPa 13 W/m²  W 1 mph   
07:40 57.1 °F 42.9 °F 1014.9 hPa 21 W/m²  Calm    
07:45 57.1 °F 43.3 °F 1014.9 hPa 26 W/m²  Calm    
07:50 57.2 °F 43.4 °F 1014.9 hPa 27 W/m²  W 3 mph   
07:55 57.3 °F 44.0 °F 1015.0 hPa 29 W/m²  W 1 mph   
08:00 57.3 °F 44.0 °F 1014.9 hPa 29 W/m²  W 1 mph   
08:05 57.4 °F 44.1 °F 1014.9 hPa 36 W/m²  NE 1 mph   
08:10 57.6 °F 43.8 °F 1015.0 hPa 94 W/m²  Calm    
08:15 57.8 °F 44.0 °F 1015.0 hPa 56 W/m²  Calm    
08:20 58.0 °F 44.2 °F 1015.0 hPa 46 W/m²  E 1 mph   
08:25 58.3 °F 44.5 °F 1015.0 hPa 51 W/m²  E 1 mph   
08:30 58.6 °F 44.3 °F 1015.2 hPa 54 W/m²  E 5 mph   
08:35 59.0 °F 43.8 °F 1015.2 hPa 59 W/m²  SW 2 mph   
08:40 59.6 °F 42.9 °F 1015.3 hPa 138 W/m²  ESE 2 mph   
08:45 60.2 °F 42.0 °F 1015.3 hPa 256 W/m²  E 5 mph   
08:50 61.2 °F 41.9 °F 1015.4 hPa 286 W/m²  ESE 3 mph   
08:55 62.5 °F 42.0 °F 1015.5 hPa 302 W/m²  ESE 3 mph   
09:00 64.2 °F 41.8 °F 1015.4 hPa 315 W/m²  ESE 3 mph   
09:05 65.6 °F 44.8 °F 1015.4 hPa 349 W/m²  ESE 3 mph   
09:10 66.5 °F 45.6 °F 1015.3 hPa 342 W/m²  ESE 2 mph   
09:15 67.5 °F 47.1 °F 1015.4 hPa 369 W/m²  WSW 1 mph   
09:20 68.3 °F 47.8 °F 1015.4 hPa 410 W/m²  WSW 2 mph   
09:25 69.3 °F 47.6 °F 1015.4 hPa 301 W/m²  SSW 1 mph   
09:30 69.9 °F 48.2 °F 1015.3 hPa 230 W/m²  SE 2 mph   
09:35 70.6 °F 47.6 °F 1015.3 hPa 0.5 299 W/m²  ESE 1 mph   
09:40 71.2 °F 48.2 °F 1015.3 hPa 304 W/m²  SW 2 mph   
09:45 71.3 °F 48.8 °F 1015.2 hPa 279 W/m²  SW 2 mph   
09:50 71.3 °F 48.2 °F 1015.3 hPa 0.5 247 W/m²  SSW 2 mph   
09:55 71.3 °F 48.2 °F 1015.4 hPa 0.8 243 W/m²  WSW 2 mph   
10:00 71.3 °F 49.4 °F 1015.4 hPa 0.8 273 W/m²  WSW 1 mph   
10:05 71.5 °F 49.6 °F 1015.3 hPa 0.7 214 W/m²  SW 1 mph   
10:10 71.6 °F 49.7 °F 1015.3 hPa 0.5 270 W/m²  SSW 2 mph   
10:15 71.7 °F 49.2 °F 1015.3 hPa 1.1 323 W/m²  WSW 2 mph   
10:20 72.6 °F 48.8 °F 1015.3 hPa 1.5 568 W/m²  WSW 3 mph   
10:25 74.0 °F 49.4 °F 1015.4 hPa 1.6 545 W/m²  WSW 5 mph